Time;durP1;ratioP1;P1;durP2;ratioP2;P2;SDS_P1;SDS_P2;PMS_P1;PMS_P2;Temp;Humidity;BMP_temperature;BMP_pressure;BME280_temperature;BME280_humidity;BME280_pressure;Samples;Min_cycle;Max_cycle;Signal;HPM_P1;HPM_P2
2022/01/15 00:00:24;;;;;;;50.65;23.73;;;;;;;;;;4993199;28;20216;-77
2022/01/15 00:02:51;;;;;;;49.03;25.15;;;;;;;;;;4992920;28;20196;-76
2022/01/15 00:05:19;;;;;;;48.42;23.55;;;;;;;;;;5010778;28;20203;-78
2022/01/15 00:07:48;;;;;;;53.72;21.77;;;;;;;;;;5007641;28;20204;-77
2022/01/15 00:10:16;;;;;;;47.17;23.35;;;;;;;;;;5008225;28;20216;-77
2022/01/15 00:12:44;;;;;;;44.17;22.60;;;;;;;;;;5005882;28;20532;-79
2022/01/15 00:15:16;;;;;;;47.42;22.23;;;;;;;;;;5010162;28;20196;-76
2022/01/15 00:17:48;;;;;;;47.20;21.38;;;;;;;;;;5008095;28;20289;-78
2022/01/15 00:20:19;;;;;;;48.50;21.05;;;;;;;;;;5011201;28;20306;-76
2022/01/15 00:22:46;;;;;;;45.35;20.75;;;;;;;;;;5011172;28;20684;-76
2022/01/15 00:25:14;;;;;;;45.70;21.38;;;;;;;;;;5006248;28;20223;-79
2022/01/15 00:27:41;;;;;;;45.75;23.85;;;;;;;;;;5006574;28;20200;-79
2022/01/15 00:30:12;;;;;;;47.35;23.98;;;;;;;;;;4990972;28;20192;-78
2022/01/15 00:32:39;;;;;;;45.38;22.48;;;;;;;;;;5010265;28;20558;-78
2022/01/15 00:35:07;;;;;;;45.00;21.55;;;;;;;;;;5011282;28;20200;-77
2022/01/15 00:37:34;;;;;;;46.22;20.90;;;;;;;;;;5011188;28;20220;-78
2022/01/15 00:40:02;;;;;;;48.72;23.42;;;;;;;;;;5010390;28;20578;-78
2022/01/15 00:42:31;;;;;;;48.97;22.13;;;;;;;;;;4989411;28;20208;-76
2022/01/15 00:45:00;;;;;;;47.55;22.45;;;;;;;;;;5007326;28;20227;-77
2022/01/15 00:47:31;;;;;;;46.80;22.10;;;;;;;;;;5010376;28;20223;-77
2022/01/15 00:49:58;;;;;;;47.88;20.23;;;;;;;;;;4993917;28;20580;-77
2022/01/15 00:52:25;;;;;;;44.85;21.85;;;;;;;;;;5011202;28;20382;-77
2022/01/15 00:54:53;;;;;;;44.22;21.80;;;;;;;;;;5007856;28;20568;-77
2022/01/15 00:57:20;;;;;;;46.17;20.73;;;;;;;;;;5008846;28;20226;-77
2022/01/15 00:59:47;;;;;;;42.72;19.67;;;;;;;;;;5006298;28;20557;-75
2022/01/15 01:02:14;;;;;;;41.03;20.38;;;;;;;;;;5010351;28;20199;-78
2022/01/15 01:04:43;;;;;;;37.20;19.27;;;;;;;;;;5011201;28;20196;-77
2022/01/15 01:07:10;;;;;;;45.80;19.75;;;;;;;;;;5008785;28;20226;-77
2022/01/15 01:12:20;;;;;;;42.53;19.03;;;;;;;;;;5009292;28;20208;-76
2022/01/15 01:20:18;;;;;;;39.40;17.52;;;;;;;;;;5010296;28;20545;-77
2022/01/15 01:22:55;;;;;;;39.70;18.80;;;;;;;;;;5009992;28;20188;-78
2022/01/15 01:25:24;;;;;;;31.02;16.55;;;;;;;;;;5010636;28;20295;-78
2022/01/15 01:27:55;;;;;;;37.60;18.10;;;;;;;;;;5009726;28;20223;-78
2022/01/15 01:30:26;;;;;;;35.35;14.98;;;;;;;;;;5012780;28;20200;-77
2022/01/15 01:33:00;;;;;;;42.90;16.90;;;;;;;;;;5011165;28;20654;-77
2022/01/15 01:35:35;;;;;;;35.83;14.77;;;;;;;;;;5006092;28;20202;-77
2022/01/15 01:38:11;;;;;;;33.85;15.10;;;;;;;;;;5006193;28;20222;-76
2022/01/15 01:40:41;;;;;;;36.00;16.98;;;;;;;;;;5009954;28;20712;-77
2022/01/15 01:43:30;;;;;;;37.33;16.95;;;;;;;;;;5008880;28;20640;-76
2022/01/15 01:46:13;;;;;;;37.08;16.90;;;;;;;;;;4995715;28;20603;-76
2022/01/15 01:48:40;;;;;;;42.42;17.35;;;;;;;;;;5009680;28;20192;-78
2022/01/15 01:51:11;;;;;;;37.45;15.35;;;;;;;;;;4994644;28;20200;-76
2022/01/15 01:53:39;;;;;;;34.17;16.58;;;;;;;;;;5010833;28;20246;-78
2022/01/15 01:56:06;;;;;;;29.55;14.45;;;;;;;;;;5010899;28;20196;-75
2022/01/15 01:58:33;;;;;;;35.47;14.63;;;;;;;;;;5006287;28;20665;-78
2022/01/15 02:01:00;;;;;;;39.85;16.45;;;;;;;;;;5007531;28;20238;-76
2022/01/15 02:03:27;;;;;;;31.42;14.98;;;;;;;;;;5009979;28;20196;-77
2022/01/15 02:05:55;;;;;;;32.95;14.55;;;;;;;;;;5009192;28;20200;-77
2022/01/15 02:08:25;;;;;;;36.25;16.45;;;;;;;;;;5006296;28;20219;-77
2022/01/15 02:10:52;;;;;;;38.63;16.40;;;;;;;;;;5008421;28;20589;-77
2022/01/15 02:13:19;;;;;;;34.53;15.93;;;;;;;;;;4992660;28;20652;-77
2022/01/15 02:15:46;;;;;;;37.05;17.67;;;;;;;;;;5006131;28;20574;-78
2022/01/15 02:18:15;;;;;;;40.28;16.85;;;;;;;;;;5005487;28;20211;-78
2022/01/15 02:26:07;;;;;;;38.80;16.38;;;;;;;;;;4992579;28;20196;-76
2022/01/15 02:28:35;;;;;;;32.80;15.57;;;;;;;;;;5009291;28;20212;-78
2022/01/15 02:31:04;;;;;;;43.47;17.92;;;;;;;;;;5005870;28;20523;-77
2022/01/15 02:33:31;;;;;;;37.95;14.95;;;;;;;;;;4988407;28;20195;-78
2022/01/15 02:36:00;;;;;;;33.25;15.63;;;;;;;;;;5009009;28;20200;-77
2022/01/15 02:38:28;;;;;;;34.72;16.48;;;;;;;;;;5009085;28;20216;-77
2022/01/15 02:40:55;;;;;;;37.03;16.27;;;;;;;;;;5008253;28;20267;-78
2022/01/15 02:43:28;;;;;;;36.85;16.42;;;;;;;;;;5008621;28;20204;-79
2022/01/15 02:45:57;;;;;;;33.53;17.10;;;;;;;;;;4989719;28;20231;-77
2022/01/15 02:48:26;;;;;;;35.78;16.17;;;;;;;;;;5012133;28;20241;-77
2022/01/15 02:50:53;;;;;;;35.03;15.20;;;;;;;;;;5018040;28;20199;-76
2022/01/15 02:53:22;;;;;;;34.45;15.00;;;;;;;;;;5010321;28;20203;-76
2022/01/15 02:55:50;;;;;;;34.30;15.07;;;;;;;;;;5012155;28;20185;-77
2022/01/15 02:58:18;;;;;;;32.38;15.13;;;;;;;;;;5014617;28;20223;-77
2022/01/15 03:00:46;;;;;;;42.72;15.60;;;;;;;;;;5010433;28;20685;-77
2022/01/15 03:03:13;;;;;;;31.33;14.38;;;;;;;;;;5012753;28;20211;-77
2022/01/15 03:05:40;;;;;;;33.47;14.02;;;;;;;;;;4998773;28;20203;-76
2022/01/15 03:08:07;;;;;;;35.28;15.45;;;;;;;;;;5016786;28;20223;-78
2022/01/15 03:10:36;;;;;;;32.78;15.68;;;;;;;;;;5013956;28;20587;-77
2022/01/15 03:13:10;;;;;;;32.13;15.30;;;;;;;;;;5015049;28;20191;-76
2022/01/15 03:15:37;;;;;;;34.33;15.80;;;;;;;;;;5012062;28;20304;-77
2022/01/15 03:18:04;;;;;;;30.70;14.85;;;;;;;;;;5012666;28;20208;-76
2022/01/15 03:20:32;;;;;;;29.27;12.82;;;;;;;;;;5014415;28;20203;-76
2022/01/15 03:22:59;;;;;;;28.80;13.73;;;;;;;;;;4996019;28;20188;-78
2022/01/15 03:25:26;;;;;;;29.48;13.85;;;;;;;;;;5015062;28;20646;-77
2022/01/15 03:27:55;;;;;;;29.95;14.57;;;;;;;;;;5014698;28;20605;-78
2022/01/15 03:30:22;;;;;;;28.65;13.85;;;;;;;;;;5015239;28;20200;-78
2022/01/15 03:32:50;;;;;;;28.27;13.88;;;;;;;;;;5010344;28;20200;-78
2022/01/15 03:35:17;;;;;;;28.80;14.13;;;;;;;;;;5011877;28;20200;-78
2022/01/15 03:37:45;;;;;;;30.83;14.75;;;;;;;;;;5015261;28;20235;-78
2022/01/15 03:40:13;;;;;;;27.65;13.68;;;;;;;;;;5013665;28;20684;-76
2022/01/15 03:42:42;;;;;;;27.60;13.48;;;;;;;;;;4997718;28;20220;-77
2022/01/15 03:45:12;;;;;;;35.17;16.23;;;;;;;;;;5015864;28;20557;-77
2022/01/15 03:47:39;;;;;;;32.65;15.95;;;;;;;;;;4997443;28;20224;-77
2022/01/15 03:50:07;;;;;;;30.65;15.35;;;;;;;;;;5017182;28;20203;-77
2022/01/15 03:52:34;;;;;;;27.23;13.05;;;;;;;;;;5016195;28;20211;-76
2022/01/15 03:55:01;;;;;;;27.15;14.63;;;;;;;;;;5010366;28;20571;-77
2022/01/15 03:57:28;;;;;;;29.23;15.15;;;;;;;;;;5011810;28;20226;-77
2022/01/15 03:59:55;;;;;;;24.80;13.48;;;;;;;;;;5012525;28;20206;-76
2022/01/15 04:02:24;;;;;;;22.38;13.25;;;;;;;;;;5011820;28;20243;-77
2022/01/15 04:04:51;;;;;;;25.38;13.98;;;;;;;;;;5010946;28;20519;-77
2022/01/15 04:07:18;;;;;;;24.92;14.00;;;;;;;;;;5009999;28;20212;-79
2022/01/15 04:09:45;;;;;;;24.25;13.15;;;;;;;;;;5011534;28;20287;-77
2022/01/15 04:12:12;;;;;;;27.95;13.63;;;;;;;;;;5008412;28;20200;-76
2022/01/15 04:14:39;;;;;;;24.67;14.15;;;;;;;;;;5008095;28;20555;-77
2022/01/15 04:17:07;;;;;;;28.30;14.63;;;;;;;;;;5011418;28;20219;-77
2022/01/15 04:19:36;;;;;;;26.70;14.27;;;;;;;;;;5010911;28;20501;-77
2022/01/15 04:22:04;;;;;;;30.40;14.70;;;;;;;;;;5007713;28;20216;-77
2022/01/15 04:24:31;;;;;;;27.60;14.75;;;;;;;;;;5011259;28;20204;-76
2022/01/15 04:26:58;;;;;;;24.90;12.98;;;;;;;;;;5013417;28;20592;-76
2022/01/15 04:29:25;;;;;;;20.63;12.38;;;;;;;;;;5013396;28;20207;-77
2022/01/15 04:31:52;;;;;;;20.10;12.05;;;;;;;;;;4992561;28;20204;-76
2022/01/15 04:34:20;;;;;;;21.60;13.05;;;;;;;;;;5008071;28;20200;-77
2022/01/15 04:36:50;;;;;;;22.40;11.25;;;;;;;;;;4990585;28;20231;-79
2022/01/15 04:39:18;;;;;;;18.92;11.48;;;;;;;;;;5011482;28;20200;-77
2022/01/15 04:41:48;;;;;;;19.30;11.45;;;;;;;;;;5009233;28;20454;-78
2022/01/15 04:44:15;;;;;;;17.73;11.07;;;;;;;;;;5009757;28;20196;-76
2022/01/15 04:46:42;;;;;;;17.52;10.40;;;;;;;;;;5008832;28;20247;-78
2022/01/15 04:49:10;;;;;;;20.08;10.65;;;;;;;;;;5013482;28;20200;-76
2022/01/15 04:51:37;;;;;;;16.40;9.95;;;;;;;;;;5013586;28;20204;-78
2022/01/15 04:54:05;;;;;;;18.13;10.38;;;;;;;;;;5009070;28;20196;-78
2022/01/15 04:56:33;;;;;;;16.48;9.90;;;;;;;;;;5007093;28;20212;-76
2022/01/15 04:59:00;;;;;;;20.77;11.40;;;;;;;;;;5007222;28;20199;-78
2022/01/15 05:01:28;;;;;;;18.58;10.60;;;;;;;;;;5009324;28;20220;-77
2022/01/15 05:03:55;;;;;;;16.45;10.50;;;;;;;;;;5011004;28;20510;-77
2022/01/15 05:06:22;;;;;;;15.93;10.88;;;;;;;;;;5010766;28;20220;-76
2022/01/15 05:08:52;;;;;;;20.60;11.90;;;;;;;;;;5009242;28;20193;-77
2022/01/15 05:11:29;;;;;;;15.68;10.05;;;;;;;;;;5012235;28;20196;-76
2022/01/15 05:13:56;;;;;;;20.63;11.30;;;;;;;;;;5012696;28;20195;-76
2022/01/15 05:16:23;;;;;;;20.42;11.30;;;;;;;;;;5009225;28;20227;-76
2022/01/15 05:18:51;;;;;;;17.80;11.43;;;;;;;;;;5006633;28;20195;-77
2022/01/15 05:21:18;;;;;;;17.80;10.07;;;;;;;;;;5008491;28;20200;-77
2022/01/15 05:23:45;;;;;;;17.23;11.25;;;;;;;;;;5008740;28;20196;-76
2022/01/15 05:26:12;;;;;;;22.35;11.82;;;;;;;;;;5010420;28;20222;-78
2022/01/15 05:28:41;;;;;;;21.33;12.10;;;;;;;;;;5008717;28;20554;-79
2022/01/15 05:31:08;;;;;;;16.80;10.45;;;;;;;;;;5007577;28;20210;-77
2022/01/15 05:33:35;;;;;;;20.90;11.23;;;;;;;;;;5010745;28;20554;-77
2022/01/15 05:36:02;;;;;;;18.52;11.27;;;;;;;;;;5010317;28;20196;-78
2022/01/15 05:38:30;;;;;;;18.90;10.88;;;;;;;;;;5009927;28;20219;-77
2022/01/15 05:40:57;;;;;;;20.50;12.18;;;;;;;;;;5009206;28;20206;-76
2022/01/15 05:43:24;;;;;;;17.58;10.45;;;;;;;;;;4992808;28;20724;-77
2022/01/15 05:45:53;;;;;;;20.50;11.85;;;;;;;;;;5010215;28;20204;-77
2022/01/15 05:48:20;;;;;;;19.40;12.30;;;;;;;;;;4990980;28;20844;-76
2022/01/15 05:50:48;;;;;;;19.75;11.10;;;;;;;;;;5009685;28;20204;-77
2022/01/15 05:53:16;;;;;;;23.33;13.52;;;;;;;;;;5005373;28;20203;-76
2022/01/15 05:55:43;;;;;;;19.02;9.75;;;;;;;;;;4989885;28;20287;-76
2022/01/15 05:58:10;;;;;;;23.08;11.38;;;;;;;;;;5002607;28;20231;-78
2022/01/15 06:00:38;;;;;;;18.75;11.35;;;;;;;;;;5008572;28;20200;-76
2022/01/15 06:03:06;;;;;;;16.85;10.63;;;;;;;;;;5005634;28;20685;-76
2022/01/15 06:05:33;;;;;;;17.33;10.68;;;;;;;;;;5007792;28;20552;-77
2022/01/15 06:08:00;;;;;;;18.65;12.00;;;;;;;;;;5006523;28;20227;-77
2022/01/15 06:10:28;;;;;;;18.05;10.48;;;;;;;;;;5004424;28;20200;-76
2022/01/15 06:12:55;;;;;;;19.33;12.40;;;;;;;;;;5006280;28;20219;-77
2022/01/15 06:15:22;;;;;;;21.42;12.27;;;;;;;;;;5009149;28;20203;-76
2022/01/15 06:17:49;;;;;;;18.65;11.02;;;;;;;;;;5008343;28;20290;-78
2022/01/15 06:20:18;;;;;;;18.65;12.20;;;;;;;;;;5009519;28;20192;-76
2022/01/15 06:22:45;;;;;;;16.05;9.70;;;;;;;;;;5009059;28;20584;-77
2022/01/15 06:25:12;;;;;;;16.38;9.65;;;;;;;;;;5007383;28;20207;-77
2022/01/15 06:27:39;;;;;;;19.83;10.90;;;;;;;;;;5003905;28;20226;-76
2022/01/15 06:30:07;;;;;;;18.88;10.05;;;;;;;;;;5008529;28;20199;-77
2022/01/15 06:32:36;;;;;;;16.88;10.45;;;;;;;;;;5008672;28;20192;-76
2022/01/15 06:35:04;;;;;;;19.58;11.27;;;;;;;;;;5008685;28;20192;-77
2022/01/15 06:37:32;;;;;;;16.92;10.50;;;;;;;;;;5007966;28;20581;-77
2022/01/15 06:39:59;;;;;;;18.13;9.82;;;;;;;;;;5010139;28;20200;-77
2022/01/15 06:42:27;;;;;;;17.40;11.43;;;;;;;;;;5004291;28;20701;-77
2022/01/15 06:44:54;;;;;;;17.75;10.73;;;;;;;;;;5003413;28;20192;-76
2022/01/15 06:47:21;;;;;;;19.63;10.80;;;;;;;;;;5008577;28;20216;-76
2022/01/15 06:49:48;;;;;;;13.65;10.13;;;;;;;;;;5008220;28;20207;-76
2022/01/15 06:52:15;;;;;;;14.27;9.90;;;;;;;;;;5008289;28;20215;-76
2022/01/15 06:54:44;;;;;;;13.00;9.20;;;;;;;;;;5008065;28;20663;-76
2022/01/15 06:57:11;;;;;;;12.32;8.65;;;;;;;;;;5007503;28;20215;-75
2022/01/15 06:59:38;;;;;;;14.93;9.63;;;;;;;;;;4994398;28;20207;-77
2022/01/15 07:02:07;;;;;;;15.65;10.30;;;;;;;;;;5009755;28;20212;-76
2022/01/15 07:04:34;;;;;;;12.38;8.63;;;;;;;;;;5004391;28;20207;-76
2022/01/15 07:07:01;;;;;;;12.30;8.75;;;;;;;;;;5004531;28;20220;-76
2022/01/15 07:09:28;;;;;;;15.73;10.43;;;;;;;;;;4996259;28;20201;-76
2022/01/15 07:11:57;;;;;;;15.02;8.82;;;;;;;;;;5001388;28;20200;-78
2022/01/15 07:14:24;;;;;;;12.95;8.45;;;;;;;;;;5004046;28;20188;-77
2022/01/15 07:16:51;;;;;;;14.43;9.50;;;;;;;;;;4999861;28;20224;-75
2022/01/15 07:19:18;;;;;;;12.48;8.75;;;;;;;;;;5000985;28;20196;-78
2022/01/15 07:21:46;;;;;;;16.25;9.88;;;;;;;;;;4994608;28;20197;-78
2022/01/15 07:24:13;;;;;;;14.80;9.32;;;;;;;;;;5003690;28;20247;-78
2022/01/15 07:26:40;;;;;;;13.02;9.32;;;;;;;;;;5003846;28;20310;-77
2022/01/15 07:29:14;;;;;;;13.20;8.75;;;;;;;;;;5003293;28;20851;-76
2022/01/15 07:31:51;;;;;;;13.32;7.97;;;;;;;;;;5005485;28;20200;-77
2022/01/15 07:34:18;;;;;;;14.07;8.50;;;;;;;;;;5004053;28;20565;-77
2022/01/15 07:36:48;;;;;;;14.27;9.35;;;;;;;;;;5020462;28;20231;-78
2022/01/15 07:39:15;;;;;;;12.18;9.18;;;;;;;;;;5007407;28;20200;-77
2022/01/15 07:41:42;;;;;;;13.10;9.70;;;;;;;;;;5010548;28;20197;-77
2022/01/15 07:44:11;;;;;;;15.15;9.88;;;;;;;;;;5004003;28;20228;-77
2022/01/15 07:46:38;;;;;;;12.10;8.63;;;;;;;;;;5004254;28;20217;-77
2022/01/15 07:49:05;;;;;;;13.50;9.93;;;;;;;;;;5002761;28;20537;-77
2022/01/15 07:51:32;;;;;;;13.07;8.25;;;;;;;;;;5010015;28;20195;-77
2022/01/15 07:53:59;;;;;;;13.60;10.38;;;;;;;;;;5010444;28;20682;-77
2022/01/15 07:56:27;;;;;;;15.25;9.93;;;;;;;;;;5011659;28;20227;-77
2022/01/15 07:58:54;;;;;;;14.48;9.35;;;;;;;;;;5006353;28;20199;-77
2022/01/15 08:01:22;;;;;;;13.82;9.40;;;;;;;;;;5004825;28;20202;-76
2022/01/15 08:03:50;;;;;;;13.18;9.38;;;;;;;;;;4994545;28;20594;-77
2022/01/15 08:06:17;;;;;;;12.85;9.75;;;;;;;;;;4992727;28;20192;-75
2022/01/15 08:08:44;;;;;;;15.27;9.00;;;;;;;;;;4991810;28;20200;-76
2022/01/15 08:11:11;;;;;;;12.93;8.02;;;;;;;;;;5009323;28;20188;-78
2022/01/15 08:13:39;;;;;;;11.90;9.05;;;;;;;;;;4999447;28;22065;-77
2022/01/15 08:16:07;;;;;;;14.38;8.98;;;;;;;;;;5005648;28;20197;-76
2022/01/15 08:18:35;;;;;;;15.43;8.82;;;;;;;;;;5007299;28;20200;-77
2022/01/15 08:21:03;;;;;;;13.10;8.98;;;;;;;;;;5007449;28;20204;-78
2022/01/15 08:23:30;;;;;;;10.68;8.55;;;;;;;;;;5006351;28;20232;-76
2022/01/15 08:25:58;;;;;;;12.45;8.95;;;;;;;;;;5009516;28;20200;-76
2022/01/15 08:28:25;;;;;;;14.02;8.85;;;;;;;;;;4994292;28;20203;-76
2022/01/15 08:30:53;;;;;;;14.63;8.77;;;;;;;;;;4999752;28;20563;-76
2022/01/15 08:33:20;;;;;;;14.82;9.15;;;;;;;;;;5005719;28;20196;-77
2022/01/15 08:35:48;;;;;;;11.05;8.48;;;;;;;;;;5008633;28;20537;-76
2022/01/15 08:38:15;;;;;;;13.30;9.40;;;;;;;;;;5008192;28;20220;-78
2022/01/15 08:40:43;;;;;;;13.75;9.38;;;;;;;;;;5007538;28;20576;-77
2022/01/15 08:43:10;;;;;;;18.10;10.98;;;;;;;;;;5008938;28;20226;-77
2022/01/15 08:45:38;;;;;;;13.48;9.75;;;;;;;;;;5009075;28;20196;-78
2022/01/15 08:48:07;;;;;;;12.23;9.88;;;;;;;;;;5010767;28;20223;-78
2022/01/15 08:50:34;;;;;;;13.43;9.60;;;;;;;;;;5006135;28;20681;-77
2022/01/15 08:53:04;;;;;;;13.93;9.52;;;;;;;;;;5006358;28;20216;-77
2022/01/15 08:55:32;;;;;;;20.00;9.63;;;;;;;;;;5005166;28;20199;-80
2022/01/15 08:57:59;;;;;;;11.52;9.52;;;;;;;;;;5012937;28;20220;-78
2022/01/15 09:00:28;;;;;;;13.35;9.32;;;;;;;;;;5029813;28;20200;-77
2022/01/15 09:02:56;;;;;;;13.02;9.35;;;;;;;;;;5014853;28;20212;-78
2022/01/15 09:05:23;;;;;;;12.80;8.52;;;;;;;;;;5011263;28;20214;-79
2022/01/15 09:07:51;;;;;;;16.42;8.95;;;;;;;;;;5018226;23;20235;-79
2022/01/15 09:10:19;;;;;;;12.60;9.48;;;;;;;;;;5011957;28;20203;-78
2022/01/15 09:12:46;;;;;;;12.98;9.27;;;;;;;;;;5004149;28;20200;-78
2022/01/15 09:15:14;;;;;;;13.90;8.30;;;;;;;;;;5006736;28;20645;-78
2022/01/15 09:17:42;;;;;;;12.45;8.75;;;;;;;;;;5009288;28;20240;-79
2022/01/15 09:20:10;;;;;;;14.30;8.27;;;;;;;;;;5008445;28;20191;-78
2022/01/15 09:22:39;;;;;;;14.57;10.02;;;;;;;;;;5009907;28;20196;-79
2022/01/15 09:25:06;;;;;;;14.63;8.95;;;;;;;;;;5010711;28;20641;-79
2022/01/15 09:30:16;;;;;;;10.27;7.45;;;;;;;;;;5006924;28;20293;-80
2022/01/15 09:32:44;;;;;;;15.23;9.43;;;;;;;;;;5004048;28;20204;-77
2022/01/15 09:35:12;;;;;;;10.70;7.80;;;;;;;;;;5001304;28;20208;-78
2022/01/15 09:37:40;;;;;;;10.88;8.70;;;;;;;;;;4987768;28;20211;-78
2022/01/15 09:40:08;;;;;;;13.18;7.93;;;;;;;;;;5008077;28;20200;-79
2022/01/15 09:42:37;;;;;;;15.48;9.65;;;;;;;;;;4991927;28;20200;-78
2022/01/15 09:45:04;;;;;;;13.32;8.23;;;;;;;;;;5009770;28;20192;-80
2022/01/15 09:47:33;;;;;;;12.68;8.32;;;;;;;;;;5010301;28;20226;-80
2022/01/15 09:50:00;;;;;;;10.57;8.05;;;;;;;;;;5007617;28;20207;-80
2022/01/15 09:52:27;;;;;;;12.65;8.43;;;;;;;;;;5004516;28;20200;-78
2022/01/15 09:54:55;;;;;;;13.07;8.40;;;;;;;;;;5001056;28;20200;-77
2022/01/15 09:57:25;;;;;;;15.80;9.35;;;;;;;;;;4984436;28;20219;-78
2022/01/15 09:59:54;;;;;;;12.63;8.93;;;;;;;;;;4994571;28;22815;-78
2022/01/15 10:02:21;;;;;;;12.02;8.07;;;;;;;;;;4993581;28;20316;-79
2022/01/15 10:04:49;;;;;;;11.43;8.55;;;;;;;;;;5007565;28;20222;-79
2022/01/15 10:07:27;;;;;;;16.95;9.48;;;;;;;;;;4994089;28;21329;-78
2022/01/15 10:09:55;;;;;;;12.85;8.30;;;;;;;;;;5000235;28;20207;-77
2022/01/15 10:12:27;;;;;;;14.48;8.85;;;;;;;;;;4989274;28;20196;-79
2022/01/15 10:15:00;;;;;;;12.75;9.13;;;;;;;;;;5007715;28;20235;-78
2022/01/15 10:17:28;;;;;;;15.95;10.07;;;;;;;;;;5005550;28;20473;-77
2022/01/15 10:19:55;;;;;;;11.63;8.20;;;;;;;;;;4992941;28;20200;-78
2022/01/15 10:22:23;;;;;;;12.73;8.10;;;;;;;;;;5008172;28;20193;-77
2022/01/15 10:24:52;;;;;;;12.48;9.20;;;;;;;;;;5003830;28;20231;-78
2022/01/15 10:27:20;;;;;;;14.10;8.32;;;;;;;;;;4993159;28;20621;-76
2022/01/15 10:29:57;;;;;;;13.77;8.52;;;;;;;;;;5001958;28;20561;-78
2022/01/15 10:32:25;;;;;;;15.40;10.18;;;;;;;;;;5008050;28;20202;-76
2022/01/15 10:34:53;;;;;;;12.45;8.50;;;;;;;;;;4990019;28;20196;-77
2022/01/15 10:37:21;;;;;;;11.18;7.97;;;;;;;;;;4989014;28;20225;-77
2022/01/15 10:39:55;;;;;;;12.52;8.05;;;;;;;;;;4986805;28;20219;-78
2022/01/15 10:42:23;;;;;;;14.02;8.50;;;;;;;;;;4980859;28;20318;-78
2022/01/15 10:44:51;;;;;;;11.45;7.80;;;;;;;;;;4972351;28;20228;-77
2022/01/15 10:47:20;;;;;;;11.30;7.63;;;;;;;;;;4991972;28;20303;-77
2022/01/15 10:49:47;;;;;;;12.57;8.70;;;;;;;;;;4988071;28;20192;-77
2022/01/15 10:52:17;;;;;;;12.25;7.90;;;;;;;;;;5007618;28;20200;-77
2022/01/15 10:55:00;;;;;;;14.07;8.52;;;;;;;;;;4994833;28;20207;-77
2022/01/15 10:57:29;;;;;;;14.45;8.65;;;;;;;;;;4988334;28;20216;-78
2022/01/15 10:59:57;;;;;;;11.27;9.27;;;;;;;;;;5005316;28;20192;-77
2022/01/15 11:02:25;;;;;;;16.75;9.95;;;;;;;;;;5004988;28;20650;-76
2022/01/15 11:04:52;;;;;;;15.43;9.70;;;;;;;;;;5006822;28;20223;-78
2022/01/15 11:07:20;;;;;;;14.82;9.30;;;;;;;;;;4991016;28;20228;-78
2022/01/15 11:09:49;;;;;;;13.43;8.55;;;;;;;;;;5011661;28;20207;-78
2022/01/15 11:12:16;;;;;;;14.43;9.52;;;;;;;;;;5006120;28;20200;-76
2022/01/15 11:14:44;;;;;;;12.40;8.75;;;;;;;;;;5008596;28;20309;-78
2022/01/15 11:17:12;;;;;;;13.57;9.15;;;;;;;;;;4998640;28;20887;-79
2022/01/15 11:19:41;;;;;;;12.88;8.30;;;;;;;;;;4998602;28;20646;-77
2022/01/15 11:22:08;;;;;;;15.30;9.65;;;;;;;;;;5011040;28;20896;-77
2022/01/15 11:24:36;;;;;;;13.30;8.90;;;;;;;;;;5011759;28;20343;-78
2022/01/15 11:27:03;;;;;;;14.13;9.45;;;;;;;;;;5001407;28;20578;-78
2022/01/15 11:29:31;;;;;;;13.38;8.82;;;;;;;;;;4996175;28;20634;-78
2022/01/15 11:32:00;;;;;;;16.02;9.13;;;;;;;;;;5010421;28;20197;-77
2022/01/15 11:34:28;;;;;;;13.55;8.57;;;;;;;;;;5006204;28;20196;-76
2022/01/15 11:36:56;;;;;;;11.55;7.95;;;;;;;;;;5008489;28;20247;-77
2022/01/15 11:39:33;;;;;;;11.98;8.45;;;;;;;;;;4997087;28;20193;-77
2022/01/15 11:42:02;;;;;;;12.90;9.80;;;;;;;;;;4992804;28;20192;-78
2022/01/15 11:44:44;;;;;;;10.48;7.55;;;;;;;;;;4992275;28;20220;-76
2022/01/15 11:47:17;;;;;;;12.07;8.48;;;;;;;;;;4995631;28;20924;-77
2022/01/15 11:49:45;;;;;;;13.43;9.40;;;;;;;;;;5013216;28;20196;-77
2022/01/15 11:52:27;;;;;;;12.27;8.25;;;;;;;;;;5014385;28;20196;-77
2022/01/15 11:55:09;;;;;;;13.77;10.30;;;;;;;;;;4994824;28;20192;-78
2022/01/15 11:57:45;;;;;;;13.75;9.13;;;;;;;;;;5006730;28;20220;-78
2022/01/15 12:00:18;;;;;;;11.73;8.23;;;;;;;;;;5006219;28;20219;-77
2022/01/15 12:02:57;;;;;;;11.07;8.32;;;;;;;;;;4994219;28;20207;-77
2022/01/15 12:05:28;;;;;;;12.23;8.35;;;;;;;;;;4987657;28;20227;-78
2022/01/15 12:08:11;;;;;;;11.90;9.07;;;;;;;;;;5009853;28;20709;-77
2022/01/15 12:10:41;;;;;;;12.60;9.55;;;;;;;;;;5004389;28;20222;-80
2022/01/15 12:13:15;;;;;;;12.73;9.13;;;;;;;;;;4988942;28;20196;-77
2022/01/15 12:15:42;;;;;;;11.45;8.65;;;;;;;;;;5008466;28;20211;-76
2022/01/15 12:18:15;;;;;;;11.00;8.82;;;;;;;;;;5005695;28;20220;-77
2022/01/15 12:20:43;;;;;;;11.02;8.57;;;;;;;;;;5008189;28;20676;-77
2022/01/15 12:23:26;;;;;;;12.30;8.50;;;;;;;;;;5018915;28;20199;-78
2022/01/15 12:25:54;;;;;;;13.45;9.35;;;;;;;;;;5012900;28;20261;-80
2022/01/15 12:28:23;;;;;;;14.85;8.65;;;;;;;;;;5006988;28;20224;-77
2022/01/15 12:30:51;;;;;;;10.77;8.73;;;;;;;;;;5007143;28;20283;-78
2022/01/15 12:33:19;;;;;;;12.70;9.45;;;;;;;;;;5004904;28;20799;-78
2022/01/15 12:35:48;;;;;;;11.80;8.63;;;;;;;;;;4991241;28;20196;-77
2022/01/15 12:38:21;;;;;;;11.77;8.55;;;;;;;;;;4993828;28;20665;-77
2022/01/15 12:40:51;;;;;;;14.95;10.13;;;;;;;;;;5007846;28;20361;-78
2022/01/15 12:43:20;;;;;;;13.98;9.80;;;;;;;;;;5008277;28;20202;-80
2022/01/15 12:45:49;;;;;;;13.07;8.65;;;;;;;;;;4989760;28;20220;-78
2022/01/15 12:48:17;;;;;;;17.13;10.43;;;;;;;;;;5008872;28;20223;-78
2022/01/15 12:50:46;;;;;;;21.48;12.15;;;;;;;;;;5007588;28;20196;-77
2022/01/15 12:53:14;;;;;;;12.00;9.00;;;;;;;;;;5010692;28;20673;-77
2022/01/15 12:55:41;;;;;;;11.15;8.93;;;;;;;;;;5010824;28;20203;-79
2022/01/15 12:58:10;;;;;;;14.07;9.90;;;;;;;;;;5010186;28;20239;-77
2022/01/15 13:00:39;;;;;;;11.88;9.23;;;;;;;;;;5005774;28;20192;-78
2022/01/15 13:03:09;;;;;;;11.38;8.82;;;;;;;;;;5005503;28;20658;-78
2022/01/15 13:05:38;;;;;;;14.38;9.32;;;;;;;;;;5007188;28;20228;-77
2022/01/15 13:08:06;;;;;;;11.27;8.65;;;;;;;;;;4990457;28;20698;-79
2022/01/15 13:10:36;;;;;;;13.85;9.80;;;;;;;;;;4990818;28;20651;-77
2022/01/15 13:13:04;;;;;;;10.02;8.35;;;;;;;;;;4985329;28;20348;-78
2022/01/15 13:15:31;;;;;;;13.88;9.18;;;;;;;;;;5008988;28;20654;-79
2022/01/15 13:17:59;;;;;;;12.68;8.55;;;;;;;;;;5005873;28;20717;-77
2022/01/15 13:20:29;;;;;;;12.60;9.45;;;;;;;;;;5000590;28;20207;-77
2022/01/15 13:22:56;;;;;;;13.57;8.85;;;;;;;;;;5010032;28;20192;-78
2022/01/15 13:25:24;;;;;;;17.20;8.55;;;;;;;;;;5009645;28;20214;-78
2022/01/15 13:27:51;;;;;;;11.80;8.05;;;;;;;;;;4993359;28;20220;-78
2022/01/15 13:30:20;;;;;;;11.18;8.60;;;;;;;;;;5003651;28;20211;-77
2022/01/15 13:32:56;;;;;;;14.18;9.25;;;;;;;;;;5012166;28;20196;-77
2022/01/15 13:35:24;;;;;;;11.85;9.15;;;;;;;;;;4995258;28;20199;-77
2022/01/15 13:37:53;;;;;;;12.75;8.73;;;;;;;;;;5009210;28;20223;-78
2022/01/15 13:40:33;;;;;;;11.27;8.98;;;;;;;;;;5006370;28;20196;-77
2022/01/15 13:43:01;;;;;;;11.20;8.40;;;;;;;;;;5005775;28;20195;-78
2022/01/15 13:45:28;;;;;;;11.13;8.38;;;;;;;;;;5009427;28;20612;-76
2022/01/15 13:47:56;;;;;;;9.60;7.75;;;;;;;;;;4999657;28;20216;-77
2022/01/15 13:53:10;;;;;;;10.43;7.40;;;;;;;;;;4991140;28;20200;-78
2022/01/15 13:55:37;;;;;;;10.45;7.60;;;;;;;;;;5003213;28;20204;-77
2022/01/15 13:58:12;;;;;;;9.57;6.05;;;;;;;;;;4991364;28;20212;-80
2022/01/15 14:00:40;;;;;;;7.43;6.13;;;;;;;;;;4993910;28;20192;-77
2022/01/15 14:03:27;;;;;;;8.65;7.15;;;;;;;;;;5003297;28;20196;-78
2022/01/15 14:05:57;;;;;;;10.48;7.57;;;;;;;;;;4963022;28;20299;-78
2022/01/15 14:08:25;;;;;;;9.90;6.82;;;;;;;;;;4949076;28;20297;-77
2022/01/15 14:10:52;;;;;;;8.65;6.80;;;;;;;;;;4948354;28;20202;-80
2022/01/15 14:13:19;;;;;;;8.55;6.82;;;;;;;;;;4944204;28;20202;-75
2022/01/15 14:15:47;;;;;;;9.93;6.78;;;;;;;;;;4944727;28;20566;-76
2022/01/15 14:18:20;;;;;;;8.75;6.25;;;;;;;;;;4944175;28;20226;-77
2022/01/15 14:20:54;;;;;;;10.13;6.82;;;;;;;;;;4941412;28;20596;-79
2022/01/15 14:23:31;;;;;;;10.95;7.55;;;;;;;;;;4948465;28;20197;-77
2022/01/15 14:26:00;;;;;;;10.25;6.38;;;;;;;;;;4949506;28;20280;-76
2022/01/15 14:28:28;;;;;;;8.30;6.43;;;;;;;;;;4948650;28;20198;-76
2022/01/15 14:30:56;;;;;;;10.52;7.10;;;;;;;;;;4949348;28;20213;-76
2022/01/15 14:33:24;;;;;;;8.82;7.00;;;;;;;;;;4963400;28;20225;-76
2022/01/15 14:35:51;;;;;;;10.77;8.43;;;;;;;;;;4963266;28;20205;-76
2022/01/15 14:38:18;;;;;;;11.98;8.35;;;;;;;;;;4962023;28;20218;-77
2022/01/15 14:40:47;;;;;;;14.85;8.38;;;;;;;;;;4950496;28;20205;-75
2022/01/15 14:43:14;;;;;;;10.90;8.80;;;;;;;;;;4951127;28;20862;-76
2022/01/15 14:45:42;;;;;;;12.48;9.48;;;;;;;;;;4952764;28;20218;-76
2022/01/15 14:48:09;;;;;;;13.57;9.45;;;;;;;;;;4962115;28;20232;-77
2022/01/15 14:50:37;;;;;;;11.40;8.38;;;;;;;;;;4964543;28;20198;-79